createdAt,value
2016-08-12T00:00:30.421Z,1013.63
2016-08-12T00:01:30.427Z,1013.66
2016-08-12T00:02:30.441Z,1013.61
2016-08-12T00:03:30.437Z,1013.63
2016-08-12T00:04:30.443Z,1013.65
2016-08-12T00:05:30.450Z,1013.66
2016-08-12T00:06:30.455Z,1013.63
2016-08-12T00:07:30.461Z,1013.62
2016-08-12T00:08:30.466Z,1013.61
2016-08-12T00:09:31.325Z,1013.6
2016-08-12T00:10:30.476Z,1013.61
2016-08-12T00:11:30.484Z,1013.63
2016-08-12T00:12:30.490Z,1013.58
2016-08-12T00:13:30.497Z,1013.64
2016-08-12T00:14:30.500Z,1013.58
2016-08-12T00:15:30.506Z,1013.6
2016-08-12T00:16:30.511Z,1013.63
2016-08-12T00:17:30.522Z,1013.62
2016-08-12T00:18:30.521Z,1013.67
2016-08-12T00:19:30.528Z,1013.61
2016-08-12T00:20:30.538Z,1013.66
2016-08-12T00:21:30.538Z,1013.64
2016-08-12T00:22:30.545Z,1013.61
2016-08-12T00:23:30.552Z,1013.62
2016-08-12T00:24:30.556Z,1013.58
2016-08-12T00:25:30.562Z,1013.59
2016-08-12T00:26:30.568Z,1013.57
2016-08-12T00:27:30.575Z,1013.54
2016-08-12T00:28:30.580Z,1013.58
2016-08-12T00:29:30.586Z,1013.55
2016-08-12T00:30:30.591Z,1013.56
2016-08-12T00:31:30.597Z,1013.53
2016-08-12T00:32:30.601Z,1013.55
2016-08-12T00:33:30.609Z,1013.56
2016-08-12T00:34:30.615Z,1013.59
2016-08-12T00:35:30.618Z,1013.59
2016-08-12T00:36:30.623Z,1013.57
2016-08-12T00:37:30.630Z,1013.61
2016-08-12T00:38:30.635Z,1013.61
2016-08-12T00:39:30.640Z,1013.61
2016-08-12T00:40:30.646Z,1013.58
2016-08-12T00:41:30.652Z,1013.55
2016-08-12T00:42:30.658Z,1013.53
2016-08-12T00:43:30.670Z,1013.55
2016-08-12T00:44:30.670Z,1013.57
2016-08-12T00:45:30.681Z,1013.51
2016-08-12T00:46:31.682Z,1013.56
2016-08-12T00:47:30.685Z,1013.57
2016-08-12T00:48:30.691Z,1013.57
2016-08-12T00:49:30.698Z,1013.57
2016-08-12T00:50:30.703Z,1013.56
2016-08-12T00:51:30.713Z,1013.58
2016-08-12T00:52:30.716Z,1013.57
2016-08-12T00:53:30.724Z,1013.61
2016-08-12T00:54:30.727Z,1013.63
2016-08-12T00:55:30.732Z,1013.56
2016-08-12T00:56:30.739Z,1013.61
2016-08-12T00:57:30.744Z,1013.6
2016-08-12T00:58:30.749Z,1013.62
2016-08-12T00:59:30.761Z,1013.59
2016-08-12T01:00:30.765Z,1013.57
2016-08-12T01:01:30.765Z,1013.64
2016-08-12T01:02:30.770Z,1013.71
2016-08-12T01:03:30.786Z,1013.66
2016-08-12T01:04:30.836Z,1013.67
2016-08-12T01:05:30.789Z,1013.67
2016-08-12T01:06:30.794Z,1013.64
2016-08-12T01:07:30.804Z,1013.71
2016-08-12T01:08:31.606Z,1013.72
2016-08-12T01:09:30.813Z,1013.67
2016-08-12T01:10:30.817Z,1013.69
2016-08-12T01:11:30.823Z,1013.75
2016-08-12T01:12:30.826Z,1013.7
2016-08-12T01:13:31.269Z,1013.69
2016-08-12T01:14:30.840Z,1013.68
2016-08-12T01:15:30.847Z,1013.72
2016-08-12T01:16:30.852Z,1013.72
2016-08-12T01:17:30.858Z,1013.68
2016-08-12T01:18:30.862Z,1013.68
2016-08-12T01:19:30.869Z,1013.72
2016-08-12T01:20:30.876Z,1013.67
2016-08-12T01:21:30.882Z,1013.68
2016-08-12T01:22:30.886Z,1013.69
2016-08-12T01:23:30.891Z,1013.58
2016-08-12T01:24:30.897Z,1013.64
2016-08-12T01:25:30.903Z,1013.66
2016-08-12T01:26:30.909Z,1013.61
2016-08-12T01:27:30.915Z,1013.65
2016-08-12T01:28:30.919Z,1013.65
2016-08-12T01:29:30.926Z,1013.65
2016-08-12T01:30:31.081Z,1013.59
2016-08-12T01:31:30.937Z,1013.61
2016-08-12T01:32:30.943Z,1013.59
2016-08-12T01:34:30.954Z,1013.57
2016-08-12T01:35:30.966Z,1013.62
2016-08-12T01:36:30.966Z,1013.58
2016-08-12T01:37:30.971Z,1013.57
2016-08-12T01:38:30.979Z,1013.61
2016-08-12T01:39:30.984Z,1013.58
2016-08-12T01:40:30.990Z,1013.58
2016-08-12T01:41:30.994Z,1013.59
2016-08-12T01:42:31.001Z,1013.65
2016-08-12T01:43:31.006Z,1013.59
2016-08-12T01:44:31.013Z,1013.61
2016-08-12T01:45:31.017Z,1013.6
2016-08-12T01:46:31.022Z,1013.61
2016-08-12T01:47:31.029Z,1013.61
2016-08-12T01:48:31.034Z,1013.56
2016-08-12T01:49:31.040Z,1013.56
2016-08-12T01:50:31.047Z,1013.61
2016-08-12T01:51:31.052Z,1013.64
2016-08-12T01:52:31.407Z,1013.62
2016-08-12T01:53:31.062Z,1013.63
2016-08-12T01:54:31.068Z,1013.61
2016-08-12T01:55:31.074Z,1013.65
2016-08-12T01:56:31.077Z,1013.62
2016-08-12T01:57:31.085Z,1013.67
2016-08-12T01:58:31.090Z,1013.69
2016-08-12T01:59:31.094Z,1013.66
2016-08-12T02:00:31.102Z,1013.68
2016-08-12T02:01:31.108Z,1013.67
2016-08-12T02:02:31.114Z,1013.66
2016-08-12T02:04:31.125Z,1013.66
2016-08-12T02:05:31.131Z,1013.71
2016-08-12T02:06:31.137Z,1013.68
2016-08-12T02:07:31.242Z,1013.7
2016-08-12T02:08:31.147Z,1013.72
2016-08-12T02:09:31.154Z,1013.68
2016-08-12T02:10:31.159Z,1013.73
2016-08-12T02:11:31.164Z,1013.73
2016-08-12T02:12:31.172Z,1013.73
2016-08-12T02:13:31.176Z,1013.77
2016-08-12T02:14:31.184Z,1013.76
2016-08-12T02:15:31.189Z,1013.76
2016-08-12T02:16:32.243Z,1013.73
2016-08-12T02:17:31.198Z,1013.78
2016-08-12T02:19:31.210Z,1013.78
2016-08-12T02:20:31.216Z,1013.72
2016-08-12T02:21:31.220Z,1013.81
2016-08-12T02:22:31.227Z,1013.76
2016-08-12T02:23:31.233Z,1013.78
2016-08-12T02:24:31.239Z,1013.79
2016-08-12T02:25:31.244Z,1013.79
2016-08-12T02:26:31.251Z,1013.81
2016-08-12T02:27:31.256Z,1013.8
2016-08-12T02:28:31.262Z,1013.83
2016-08-12T02:29:31.269Z,1013.77
2016-08-12T02:30:31.273Z,1013.79
2016-08-12T02:31:31.279Z,1013.81
2016-08-12T02:32:31.285Z,1013.76
2016-08-12T02:34:31.296Z,1013.76
2016-08-12T02:35:31.303Z,1013.78
2016-08-12T02:36:31.307Z,1013.76
2016-08-12T02:37:31.312Z,1013.81
2016-08-12T02:38:31.970Z,1013.79
2016-08-12T02:39:31.325Z,1013.8
2016-08-12T02:40:31.330Z,1013.8
2016-08-12T02:41:31.336Z,1013.84
2016-08-12T02:42:31.343Z,1013.83
2016-08-12T02:43:31.346Z,1013.8
2016-08-12T02:44:31.353Z,1013.83
2016-08-12T02:45:31.358Z,1013.81
2016-08-12T02:46:31.377Z,1013.86
2016-08-12T02:47:31.369Z,1013.81
2016-08-12T02:49:31.380Z,1013.85
2016-08-12T02:50:31.387Z,1013.84
2016-08-12T02:51:31.391Z,1013.85
2016-08-12T02:52:31.398Z,1013.85
2016-08-12T02:53:32.004Z,1013.88
2016-08-12T02:54:31.408Z,1013.88
2016-08-12T02:55:31.414Z,1013.88
2016-08-12T02:56:31.421Z,1013.89
2016-08-12T02:57:31.426Z,1013.85
2016-08-12T02:58:31.431Z,1013.92
2016-08-12T02:59:31.438Z,1013.95
2016-08-12T03:00:31.442Z,1013.98
2016-08-12T03:01:31.450Z,1013.96
2016-08-12T03:02:31.455Z,1013.97
2016-08-12T03:04:31.468Z,1013.97
2016-08-12T03:05:31.473Z,1014.01
2016-08-12T03:06:31.479Z,1013.98
2016-08-12T03:07:31.484Z,1013.97
2016-08-12T03:08:31.490Z,1013.99
2016-08-12T03:09:31.495Z,1013.98
2016-08-12T03:10:31.500Z,1014.01
2016-08-12T03:11:31.507Z,1014.01
2016-08-12T03:12:31.511Z,1013.96
2016-08-12T03:13:31.674Z,1013.98
2016-08-12T03:14:31.523Z,1013.94
2016-08-12T03:15:31.832Z,1013.93
2016-08-12T03:16:31.535Z,1013.95
2016-08-12T03:17:31.540Z,1013.96
2016-08-12T03:18:31.554Z,1013.97
2016-08-12T03:19:31.555Z,1013.99
2016-08-12T03:20:31.559Z,1014.02
2016-08-12T03:21:31.564Z,1014.01
2016-08-12T03:22:31.571Z,1014
2016-08-12T03:23:31.576Z,1014.01
2016-08-12T03:24:32.633Z,1013.98
2016-08-12T03:25:31.588Z,1013.99
2016-08-12T03:26:31.594Z,1013.99
2016-08-12T03:27:31.599Z,1014.02
2016-08-12T03:28:31.604Z,1014.04
2016-08-12T03:29:31.610Z,1014
2016-08-12T03:30:31.615Z,1014.03
2016-08-12T03:31:31.621Z,1014.06
2016-08-12T03:32:31.627Z,1014.06
2016-08-12T03:34:31.637Z,1014.09
2016-08-12T03:35:31.644Z,1014.09
2016-08-12T03:36:31.649Z,1014.03
2016-08-12T03:37:31.655Z,1014.06
2016-08-12T03:38:31.661Z,1014.04
2016-08-12T03:39:32.717Z,1014.03
2016-08-12T03:40:31.671Z,1014.07
2016-08-12T03:41:31.678Z,1014.06
2016-08-12T03:42:31.682Z,1014.06
2016-08-12T03:43:31.689Z,1014.05
2016-08-12T03:44:31.695Z,1014.05
2016-08-12T03:45:31.699Z,1014.05
2016-08-12T03:46:31.706Z,1014.06
2016-08-12T03:47:31.712Z,1014.05
2016-08-12T03:48:31.718Z,1014.05
2016-08-12T03:49:31.724Z,1014.09
2016-08-12T03:50:31.729Z,1014.08
2016-08-12T03:51:31.735Z,1014.06
2016-08-12T03:52:31.742Z,1014.07
2016-08-12T03:53:31.745Z,1014.07
2016-08-12T03:54:31.751Z,1014.08
2016-08-12T03:55:31.758Z,1014.11
2016-08-12T03:56:31.761Z,1014.1
2016-08-12T03:57:31.768Z,1014.13
2016-08-12T03:58:31.775Z,1014.12
2016-08-12T03:59:31.780Z,1014.12
2016-08-12T04:00:31.784Z,1014.15
2016-08-12T04:01:32.241Z,1014.15
2016-08-12T04:02:31.796Z,1014.17
2016-08-12T04:03:31.802Z,1014.15
2016-08-12T04:04:31.808Z,1014.18
2016-08-12T04:05:31.814Z,1014.2
2016-08-12T04:06:31.819Z,1014.14
2016-08-12T04:07:31.824Z,1014.19
2016-08-12T04:08:31.832Z,1014.17
2016-08-12T04:09:31.837Z,1014.16
2016-08-12T04:10:31.857Z,1014.14
2016-08-12T04:11:31.850Z,1014.13
2016-08-12T04:12:31.853Z,1014.17
2016-08-12T04:13:31.859Z,1014.15
2016-08-12T04:14:31.867Z,1014.19
2016-08-12T04:15:31.870Z,1014.2
2016-08-12T04:16:31.877Z,1014.23
2016-08-12T04:17:31.883Z,1014.25
2016-08-12T04:18:31.939Z,1014.27
2016-08-12T04:19:31.894Z,1014.25
2016-08-12T04:20:31.952Z,1014.25
2016-08-12T04:21:31.906Z,1014.28
2016-08-12T04:22:31.911Z,1014.3
2016-08-12T04:23:31.918Z,1014.3
2016-08-12T04:24:31.925Z,1014.27
2016-08-12T04:25:31.929Z,1014.3
2016-08-12T04:26:31.935Z,1014.31
2016-08-12T04:27:31.940Z,1014.31
2016-08-12T04:28:31.946Z,1014.32
2016-08-12T04:29:31.951Z,1014.37
2016-08-12T04:30:31.958Z,1014.37
2016-08-12T04:31:31.963Z,1014.38
2016-08-12T04:32:31.968Z,1014.39
2016-08-12T04:33:31.977Z,1014.39
2016-08-12T04:34:31.980Z,1014.43
2016-08-12T04:35:31.986Z,1014.42
2016-08-12T04:36:31.993Z,1014.44
2016-08-12T04:37:32.000Z,1014.41
2016-08-12T04:38:32.005Z,1014.45
2016-08-12T04:39:32.010Z,1014.45
2016-08-12T04:40:32.066Z,1014.48
2016-08-12T04:41:32.021Z,1014.5
2016-08-12T04:42:32.027Z,1014.5
2016-08-12T04:43:32.035Z,1014.47
2016-08-12T04:44:32.039Z,1014.53
2016-08-12T04:45:32.044Z,1014.51
2016-08-12T04:46:32.051Z,1014.51
2016-08-12T04:47:33.157Z,1014.53
2016-08-12T04:48:32.061Z,1014.53
2016-08-12T04:49:32.068Z,1014.54
2016-08-12T04:50:32.075Z,1014.56
2016-08-12T04:51:32.079Z,1014.56
2016-08-12T04:52:32.085Z,1014.59
2016-08-12T04:53:32.101Z,1014.6
2016-08-12T04:54:32.104Z,1014.64
2016-08-12T04:55:32.100Z,1014.64
2016-08-12T04:56:32.107Z,1014.66
2016-08-12T04:57:32.116Z,1014.66
2016-08-12T04:58:32.123Z,1014.68
2016-08-12T04:59:32.124Z,1014.7
2016-08-12T05:00:32.131Z,1014.67
2016-08-12T05:01:32.136Z,1014.75
2016-08-12T05:02:32.142Z,1014.71
2016-08-12T05:03:32.146Z,1014.71
2016-08-12T05:04:32.153Z,1014.76
2016-08-12T05:05:32.157Z,1014.72
2016-08-12T05:06:32.163Z,1014.7
2016-08-12T05:07:32.170Z,1014.74
2016-08-12T05:08:32.176Z,1014.74
2016-08-12T05:09:33.233Z,1014.76
2016-08-12T05:10:32.186Z,1014.79
2016-08-12T05:11:32.195Z,1014.74
2016-08-12T05:12:32.198Z,1014.75
2016-08-12T05:13:32.205Z,1014.76
2016-08-12T05:14:32.211Z,1014.76
2016-08-12T05:15:32.217Z,1014.76
2016-08-12T05:16:32.223Z,1014.76
2016-08-12T05:17:32.229Z,1014.76
2016-08-12T05:18:32.234Z,1014.8
2016-08-12T05:19:32.240Z,1014.77
2016-08-12T05:20:32.245Z,1014.78
2016-08-12T05:21:32.251Z,1014.78
2016-08-12T05:22:32.256Z,1014.79
2016-08-12T05:23:32.261Z,1014.78
2016-08-12T05:24:32.268Z,1014.78
2016-08-12T05:25:32.273Z,1014.79
2016-08-12T05:26:32.280Z,1014.79
2016-08-12T05:27:32.287Z,1014.78
2016-08-12T05:28:32.341Z,1014.8
2016-08-12T05:29:32.299Z,1014.8
2016-08-12T05:30:32.303Z,1014.87
2016-08-12T05:31:32.858Z,1014.87
2016-08-12T05:32:32.314Z,1014.83
2016-08-12T05:33:32.319Z,1014.87
2016-08-12T05:34:32.428Z,1014.85
2016-08-12T05:35:32.331Z,1014.84
2016-08-12T05:36:32.338Z,1014.86
2016-08-12T05:37:32.344Z,1014.88
2016-08-12T05:38:32.350Z,1014.88
2016-08-12T05:39:32.357Z,1014.88
2016-08-12T05:40:32.361Z,1014.88
2016-08-12T05:41:32.368Z,1014.86
2016-08-12T05:42:32.373Z,1014.93
2016-08-12T05:43:32.379Z,1014.9
2016-08-12T05:44:32.391Z,1014.89
2016-08-12T05:45:32.389Z,1014.93
2016-08-12T05:46:32.399Z,1014.93
2016-08-12T05:47:32.402Z,1014.93
2016-08-12T05:48:32.407Z,1014.96
2016-08-12T05:49:32.413Z,1014.97
2016-08-12T05:50:32.419Z,1015.01
2016-08-12T05:51:32.423Z,1015.03
2016-08-12T05:52:32.430Z,1015.02
2016-08-12T05:53:32.586Z,1015.06
2016-08-12T05:54:32.442Z,1015.09
2016-08-12T05:55:32.447Z,1015.09
2016-08-12T05:56:32.453Z,1015.08
2016-08-12T05:57:32.457Z,1015.1
2016-08-12T05:58:32.464Z,1015.08
2016-08-12T05:59:32.470Z,1015.09
2016-08-12T06:00:32.476Z,1015.08
2016-08-12T06:01:32.481Z,1015.11
2016-08-12T06:02:32.489Z,1015.14
2016-08-12T06:03:32.493Z,1015.14
2016-08-12T06:04:32.497Z,1015.13
2016-08-12T06:05:32.503Z,1015.14
2016-08-12T06:06:32.509Z,1015.12
2016-08-12T06:07:32.517Z,1015.15
2016-08-12T06:08:32.520Z,1015.17
2016-08-12T06:09:32.526Z,1015.19
2016-08-12T06:10:32.533Z,1015.16
2016-08-12T06:11:32.538Z,1015.16
2016-08-12T06:12:32.595Z,1015.17
2016-08-12T06:13:32.551Z,1015.2
2016-08-12T06:14:32.561Z,1015.23
2016-08-12T06:15:32.563Z,1015.22
2016-08-12T06:16:32.568Z,1015.26
2016-08-12T06:17:33.527Z,1015.22
2016-08-12T06:18:32.581Z,1015.21
2016-08-12T06:19:32.586Z,1015.22
2016-08-12T06:20:32.592Z,1015.25
2016-08-12T06:21:32.598Z,1015.25
2016-08-12T06:22:32.603Z,1015.23
2016-08-12T06:23:32.609Z,1015.29
2016-08-12T06:24:32.614Z,1015.27
2016-08-12T06:25:32.621Z,1015.32
2016-08-12T06:26:32.625Z,1015.31
2016-08-12T06:27:32.632Z,1015.29
2016-08-12T06:28:32.637Z,1015.34
2016-08-12T06:29:32.644Z,1015.33
2016-08-12T06:30:32.649Z,1015.35
2016-08-12T06:31:32.705Z,1015.34
2016-08-12T06:32:32.661Z,1015.37
2016-08-12T06:33:32.665Z,1015.37
2016-08-12T06:34:32.672Z,1015.39
2016-08-12T06:35:32.678Z,1015.4
2016-08-12T06:36:32.685Z,1015.43
2016-08-12T06:37:32.691Z,1015.41
2016-08-12T06:38:32.698Z,1015.46
2016-08-12T06:39:33.554Z,1015.47
2016-08-12T06:40:32.708Z,1015.42
2016-08-12T06:41:32.714Z,1015.47
2016-08-12T06:42:32.718Z,1015.47
2016-08-12T06:43:32.724Z,1015.41
2016-08-12T06:44:32.730Z,1015.49
2016-08-12T06:45:32.736Z,1015.49
2016-08-12T06:46:32.741Z,1015.5
2016-08-12T06:47:32.747Z,1015.5
2016-08-12T06:48:32.752Z,1015.52
2016-08-12T06:49:32.757Z,1015.52
2016-08-12T06:50:32.765Z,1015.48
2016-08-12T06:51:32.769Z,1015.47
2016-08-12T06:52:32.775Z,1015.45
2016-08-12T06:53:32.781Z,1015.45
2016-08-12T06:54:33.542Z,1015.42
2016-08-12T06:55:32.792Z,1015.4
2016-08-12T06:56:32.798Z,1015.38
2016-08-12T06:57:32.805Z,1015.37
2016-08-12T06:58:32.811Z,1015.35
2016-08-12T06:59:32.815Z,1015.38
2016-08-12T07:00:32.821Z,1015.38
2016-08-12T07:01:32.879Z,1015.45
2016-08-12T07:02:32.833Z,1015.51
2016-08-12T07:03:32.839Z,1015.48
2016-08-12T07:04:32.845Z,1015.52
2016-08-12T07:05:33.001Z,1015.56
2016-08-12T07:06:32.854Z,1015.58
2016-08-12T07:07:32.860Z,1015.57
2016-08-12T07:08:32.867Z,1015.6
2016-08-12T07:09:32.874Z,1015.6
2016-08-12T07:10:32.879Z,1015.64
2016-08-12T07:11:32.884Z,1015.6
2016-08-12T07:12:32.891Z,1015.61
2016-08-12T07:13:32.897Z,1015.65
2016-08-12T07:14:32.903Z,1015.66
2016-08-12T07:15:32.908Z,1015.71
2016-08-12T07:16:33.214Z,1015.7
2016-08-12T07:17:32.919Z,1015.69
2016-08-12T07:18:32.926Z,1015.74
2016-08-12T07:19:32.932Z,1015.72
2016-08-12T07:20:32.939Z,1015.73
2016-08-12T07:21:32.943Z,1015.74
2016-08-12T07:22:32.951Z,1015.77
2016-08-12T07:23:32.955Z,1015.79
2016-08-12T07:24:32.961Z,1015.76
2016-08-12T07:25:34.102Z,1015.75
2016-08-12T07:26:32.972Z,1015.79
2016-08-12T07:27:32.978Z,1015.84
2016-08-12T07:28:32.984Z,1015.81
2016-08-12T07:29:33.041Z,1015.84
2016-08-12T07:30:32.996Z,1015.86
2016-08-12T07:31:33.002Z,1015.88
2016-08-12T07:32:33.008Z,1015.85
2016-08-12T07:33:33.015Z,1015.88
2016-08-12T07:34:33.020Z,1015.92
2016-08-12T07:35:33.024Z,1015.86
2016-08-12T07:36:33.029Z,1015.88
2016-08-12T07:37:33.036Z,1015.87
2016-08-12T07:38:33.042Z,1015.93
2016-08-12T07:39:33.047Z,1015.92
2016-08-12T07:40:34.187Z,1015.94
2016-08-12T07:41:33.059Z,1015.96
2016-08-12T07:42:33.066Z,1016
2016-08-12T07:43:33.071Z,1015.98
2016-08-12T07:44:33.077Z,1015.99
2016-08-12T07:45:33.236Z,1015.99
2016-08-12T07:46:33.089Z,1015.95
2016-08-12T07:47:33.095Z,1015.97
2016-08-12T07:48:33.101Z,1015.98
2016-08-12T07:50:33.161Z,1016
2016-08-12T07:51:33.119Z,1016
2016-08-12T07:52:33.125Z,1015.97
2016-08-12T07:53:33.130Z,1015.95
2016-08-12T07:54:33.136Z,1015.97
2016-08-12T07:55:33.141Z,1016.01
2016-08-12T07:56:33.146Z,1016
2016-08-12T07:57:33.202Z,1015.99
2016-08-12T07:58:33.160Z,1016.06
2016-08-12T07:59:33.166Z,1016.04
2016-08-12T08:00:33.170Z,1016.02
2016-08-12T08:01:33.176Z,1016.06
2016-08-12T08:02:34.332Z,1016.06
2016-08-12T08:03:33.186Z,1016.07
2016-08-12T08:05:33.199Z,1016.11
2016-08-12T08:06:33.204Z,1016.12
2016-08-12T08:07:33.211Z,1016.08
2016-08-12T08:08:33.266Z,1016.17
2016-08-12T08:09:33.223Z,1016.18
2016-08-12T08:10:33.228Z,1016.16
2016-08-12T08:11:33.235Z,1016.14
2016-08-12T08:12:33.240Z,1016.12
2016-08-12T08:13:33.246Z,1016.15
2016-08-12T08:14:33.251Z,1016.16
2016-08-12T08:15:33.257Z,1016.17
2016-08-12T08:16:33.262Z,1016.2
2016-08-12T08:17:33.273Z,1016.21
2016-08-12T08:18:33.275Z,1016.21
2016-08-12T08:20:33.286Z,1016.24
2016-08-12T08:21:33.293Z,1016.28
2016-08-12T08:22:33.298Z,1016.28
2016-08-12T08:23:33.353Z,1016.32
2016-08-12T08:24:33.308Z,1016.31
2016-08-12T08:25:33.315Z,1016.36
2016-08-12T08:26:33.323Z,1016.33
2016-08-12T08:27:33.326Z,1016.35
2016-08-12T08:28:33.333Z,1016.34
2016-08-12T08:29:33.338Z,1016.37
2016-08-12T08:30:33.345Z,1016.31
2016-08-12T08:31:33.350Z,1016.33
2016-08-12T08:32:33.357Z,1016.4
2016-08-12T08:33:33.412Z,1016.37
2016-08-12T08:34:33.368Z,1016.4
2016-08-12T08:35:33.374Z,1016.32
2016-08-12T08:36:33.380Z,1016.38
2016-08-12T08:37:33.686Z,1016.39
2016-08-12T08:38:33.390Z,1016.4
2016-08-12T08:39:33.397Z,1016.36
2016-08-12T08:40:33.404Z,1016.39
2016-08-12T08:41:33.408Z,1016.4
2016-08-12T08:42:33.416Z,1016.38
2016-08-12T08:43:33.470Z,1016.33
2016-08-12T08:44:33.427Z,1016.39
2016-08-12T08:45:33.439Z,1016.38
2016-08-12T08:46:33.438Z,1016.43
2016-08-12T08:47:33.444Z,1016.45
2016-08-12T08:48:33.449Z,1016.48
2016-08-12T08:49:33.455Z,1016.53
2016-08-12T08:50:33.463Z,1016.49
2016-08-12T08:51:33.467Z,1016.5
2016-08-12T08:52:33.523Z,1016.52
2016-08-12T08:53:33.478Z,1016.54
2016-08-12T08:54:33.486Z,1016.53
2016-08-12T08:55:33.490Z,1016.55
2016-08-12T08:56:33.496Z,1016.51
2016-08-12T08:57:33.503Z,1016.53
2016-08-12T08:58:33.509Z,1016.52
2016-08-12T08:59:33.564Z,1016.52
2016-08-12T09:00:33.519Z,1016.55
2016-08-12T09:01:33.525Z,1016.58
2016-08-12T09:02:33.532Z,1016.56
2016-08-12T09:03:33.537Z,1016.55
2016-08-12T09:04:33.543Z,1016.51
2016-08-12T09:05:33.550Z,1016.49
2016-08-12T09:06:33.556Z,1016.52
2016-08-12T09:07:33.562Z,1016.56
2016-08-12T09:08:34.469Z,1016.52
2016-08-12T09:09:33.572Z,1016.56
2016-08-12T09:10:33.580Z,1016.59
2016-08-12T09:11:33.585Z,1016.64
2016-08-12T09:12:33.591Z,1016.65
2016-08-12T09:13:33.599Z,1016.64
2016-08-12T09:14:33.603Z,1016.67
2016-08-12T09:15:33.608Z,1016.66
2016-08-12T09:16:33.616Z,1016.64
2016-08-12T09:17:33.621Z,1016.59
2016-08-12T09:18:33.626Z,1016.59
2016-08-12T09:19:33.733Z,1016.6
2016-08-12T09:20:33.640Z,1016.57
2016-08-12T09:21:33.643Z,1016.59
2016-08-12T09:22:33.651Z,1016.59
2016-08-12T09:23:34.308Z,1016.63
2016-08-12T09:24:33.663Z,1016.63
2016-08-12T09:25:33.669Z,1016.61
2016-08-12T09:26:33.676Z,1016.62
2016-08-12T09:27:33.680Z,1016.62
2016-08-12T09:28:33.688Z,1016.6
2016-08-12T09:29:33.692Z,1016.61
2016-08-12T09:30:33.699Z,1016.6
2016-08-12T09:31:33.704Z,1016.65
2016-08-12T09:32:33.711Z,1016.62
2016-08-12T09:33:33.767Z,1016.61
2016-08-12T09:34:33.723Z,1016.61
2016-08-12T09:35:33.779Z,1016.64
2016-08-12T09:36:33.735Z,1016.64
2016-08-12T09:37:33.741Z,1016.63
2016-08-12T09:38:33.748Z,1016.65
2016-08-12T09:39:33.754Z,1016.67
2016-08-12T09:40:33.759Z,1016.71
2016-08-12T09:41:33.765Z,1016.71
2016-08-12T09:42:33.772Z,1016.75
2016-08-12T09:43:33.827Z,1016.74
2016-08-12T09:44:33.783Z,1016.78
2016-08-12T09:45:34.289Z,1016.79
2016-08-12T09:46:33.795Z,1016.82
2016-08-12T09:47:33.801Z,1016.87
2016-08-12T09:48:33.807Z,1016.78
2016-08-12T09:49:33.814Z,1016.79
2016-08-12T09:50:33.820Z,1016.71
2016-08-12T09:51:33.825Z,1016.69
2016-08-12T09:52:33.831Z,1016.66
2016-08-12T09:53:33.838Z,1016.65
2016-08-12T09:54:33.843Z,1016.71
2016-08-12T09:55:33.850Z,1016.71
2016-08-12T09:56:33.855Z,1016.71
2016-08-12T09:57:33.864Z,1016.71
2016-08-12T09:58:33.867Z,1016.79
2016-08-12T09:59:33.873Z,1016.74
2016-08-12T10:00:33.880Z,1016.78
2016-08-12T10:01:33.885Z,1016.78
2016-08-12T10:02:33.890Z,1016.8
2016-08-12T10:03:33.896Z,1016.81
2016-08-12T10:04:33.903Z,1016.78
2016-08-12T10:05:33.907Z,1016.77
2016-08-12T10:06:33.914Z,1016.8
2016-08-12T10:07:33.919Z,1016.82
2016-08-12T10:08:33.926Z,1016.78
2016-08-12T10:09:33.931Z,1016.81
2016-08-12T10:10:33.938Z,1016.77
2016-08-12T10:11:33.943Z,1016.85
2016-08-12T10:12:33.950Z,1016.82
2016-08-12T10:13:34.006Z,1016.82
2016-08-12T10:14:33.960Z,1016.86
2016-08-12T10:15:33.967Z,1016.87
2016-08-12T10:16:33.972Z,1016.88
2016-08-12T10:17:33.979Z,1016.87
2016-08-12T10:18:33.984Z,1016.91
2016-08-12T10:19:33.992Z,1016.9
2016-08-12T10:20:34.003Z,1016.9
2016-08-12T10:21:34.002Z,1016.87
2016-08-12T10:22:34.009Z,1016.9
2016-08-12T10:23:34.015Z,1016.91
2016-08-12T10:24:34.020Z,1016.88
2016-08-12T10:25:34.026Z,1016.92
2016-08-12T10:26:34.033Z,1016.93
2016-08-12T10:27:34.042Z,1016.93
2016-08-12T10:28:34.043Z,1016.97
2016-08-12T10:29:34.050Z,1016.95
2016-08-12T10:30:34.056Z,1016.94
2016-08-12T10:31:34.962Z,1016.94
2016-08-12T10:32:34.066Z,1016.9
2016-08-12T10:33:34.074Z,1016.91
2016-08-12T10:34:34.080Z,1016.92
2016-08-12T10:35:34.084Z,1016.9
2016-08-12T10:36:34.094Z,1016.98
2016-08-12T10:37:34.147Z,1016.9
2016-08-12T10:38:34.103Z,1016.94
2016-08-12T10:39:34.109Z,1016.98
2016-08-12T10:40:34.114Z,1016.94
2016-08-12T10:41:34.120Z,1016.96
2016-08-12T10:42:34.125Z,1016.96
2016-08-12T10:43:34.130Z,1016.92
2016-08-12T10:44:34.188Z,1016.92
2016-08-12T10:45:34.144Z,1016.94
2016-08-12T10:46:34.150Z,1016.96
2016-08-12T10:47:34.156Z,1016.93
2016-08-12T10:48:34.162Z,1016.91
2016-08-12T10:49:34.166Z,1016.94
2016-08-12T10:50:34.277Z,1016.96
2016-08-12T10:51:34.180Z,1016.89
2016-08-12T10:52:34.187Z,1016.95
2016-08-12T10:53:34.841Z,1016.9
2016-08-12T10:54:34.197Z,1016.94
2016-08-12T10:55:34.204Z,1016.95
2016-08-12T10:56:34.210Z,1016.95
2016-08-12T10:57:34.216Z,1016.98
2016-08-12T10:58:34.226Z,1016.94
2016-08-12T10:59:34.233Z,1016.97
2016-08-12T11:00:34.235Z,1016.94
2016-08-12T11:01:34.240Z,1016.95
2016-08-12T11:02:34.246Z,1016.95
2016-08-12T11:03:34.253Z,1016.94
2016-08-12T11:04:34.258Z,1016.97
2016-08-12T11:05:34.263Z,1016.95
2016-08-12T11:06:34.272Z,1016.95
2016-08-12T11:07:34.276Z,1016.89
2016-08-12T11:08:34.283Z,1016.93
2016-08-12T11:09:34.288Z,1016.94
2016-08-12T11:10:34.300Z,1016.9
2016-08-12T11:11:34.299Z,1016.97
2016-08-12T11:12:34.305Z,1016.94
2016-08-12T11:13:34.364Z,1017
2016-08-12T11:14:34.319Z,1016.99
2016-08-12T11:15:34.474Z,1017.02
2016-08-12T11:16:34.329Z,1016.99
2016-08-12T11:17:34.337Z,1017.02
2016-08-12T11:18:34.342Z,1016.99
2016-08-12T11:19:34.347Z,1017.01
2016-08-12T11:20:34.353Z,1017.03
2016-08-12T11:21:34.361Z,1017
2016-08-12T11:22:34.365Z,1016.95
2016-08-12T11:23:34.371Z,1016.95
2016-08-12T11:24:34.378Z,1016.9
2016-08-12T11:25:34.384Z,1016.95
2016-08-12T11:26:34.390Z,1016.97
2016-08-12T11:27:34.396Z,1016.94
2016-08-12T11:28:34.402Z,1016.93
2016-08-12T11:29:34.412Z,1016.95
2016-08-12T11:30:34.414Z,1016.98
2016-08-12T11:31:34.421Z,1016.97
2016-08-12T11:32:34.426Z,1017
2016-08-12T11:33:34.432Z,1017.01
2016-08-12T11:34:34.438Z,1016.96
2016-08-12T11:35:34.444Z,1017
2016-08-12T11:36:34.451Z,1017.02
2016-08-12T11:37:34.454Z,1017.01
2016-08-12T11:38:34.461Z,1017.04
2016-08-12T11:39:34.467Z,1017.06
2016-08-12T11:40:34.473Z,1017.05
2016-08-12T11:41:34.479Z,1017.05
2016-08-12T11:42:34.486Z,1017.09
2016-08-12T11:43:34.493Z,1017.11
2016-08-12T11:44:34.503Z,1017.07
2016-08-12T11:45:34.504Z,1017.09
2016-08-12T11:46:34.511Z,1017.05
2016-08-12T11:47:34.516Z,1017.08
2016-08-12T11:48:34.522Z,1017.09
2016-08-12T11:49:34.527Z,1017.12
2016-08-12T11:50:34.544Z,1017.08
2016-08-12T11:51:34.540Z,1017.12
2016-08-12T11:52:34.547Z,1017.13
2016-08-12T11:53:34.554Z,1017.15
2016-08-12T11:54:34.560Z,1017.15
2016-08-12T11:55:34.566Z,1017.12
2016-08-12T11:56:34.573Z,1017.17
2016-08-12T11:57:34.629Z,1017.17
2016-08-12T11:58:34.586Z,1017.15
2016-08-12T11:59:34.591Z,1017.14
2016-08-12T12:00:34.598Z,1017.16
2016-08-12T12:01:35.406Z,1017.14
2016-08-12T12:02:34.610Z,1017.15
2016-08-12T12:03:34.616Z,1017.14
2016-08-12T12:04:34.624Z,1017.16
2016-08-12T12:05:34.630Z,1017.17
2016-08-12T12:06:34.635Z,1017.11
2016-08-12T12:07:34.643Z,1017.13
2016-08-12T12:08:34.649Z,1017.07
2016-08-12T12:09:34.656Z,1017.16
2016-08-12T12:10:34.713Z,1017.13
2016-08-12T12:11:34.668Z,1017.18
2016-08-12T12:12:34.674Z,1017.19
2016-08-12T12:13:34.681Z,1017.26
2016-08-12T12:14:34.688Z,1017.15
2016-08-12T12:15:34.698Z,1017.21
2016-08-12T12:16:34.700Z,1017.16
2016-08-12T12:17:34.710Z,1017.12
2016-08-12T12:18:34.714Z,1017.1